createdAt,value
2017-12-24T00:00:23.722Z,1032.5
2017-12-24T00:01:25.448Z,1032.5
2017-12-24T00:02:27.185Z,1032.6
2017-12-24T00:03:28.977Z,1032.6
2017-12-24T00:04:30.738Z,1032.6
2017-12-24T00:05:32.514Z,1032.6
2017-12-24T00:06:34.261Z,1032.5
2017-12-24T00:07:35.989Z,1032.6
2017-12-24T00:08:37.762Z,1032.5
2017-12-24T00:09:39.473Z,1032.5
2017-12-24T00:10:41.217Z,1032.5
2017-12-24T00:11:43.041Z,1032.5
2017-12-24T00:12:44.817Z,1032.5
2017-12-24T00:13:46.542Z,1032.5
2017-12-24T00:14:48.407Z,1032.5
2017-12-24T00:15:50.194Z,1032.5
2017-12-24T00:16:51.969Z,1032.4
2017-12-24T00:17:53.773Z,1032.4
2017-12-24T00:18:55.483Z,1032.4
2017-12-24T00:19:57.218Z,1032.4
2017-12-24T00:20:59.154Z,1032.4
2017-12-24T00:22:00.863Z,1032.3
2017-12-24T00:23:02.578Z,1032.3
2017-12-24T00:24:04.322Z,1032.3
2017-12-24T00:25:06.114Z,1032.3
2017-12-24T00:26:07.859Z,1032.3
2017-12-24T00:27:09.594Z,1032.3
2017-12-24T00:28:11.365Z,1032.3
2017-12-24T00:29:13.111Z,1032.3
2017-12-24T00:30:14.854Z,1032.3
2017-12-24T00:31:16.579Z,1032.3
2017-12-24T00:32:18.378Z,1032.3
2017-12-24T00:33:20.120Z,1032.3
2017-12-24T00:34:21.917Z,1032.2
2017-12-24T00:35:23.618Z,1032.2
2017-12-24T00:36:25.341Z,1032.2
2017-12-24T00:37:27.130Z,1032.2
2017-12-24T00:38:28.836Z,1032.2
2017-12-24T00:39:30.590Z,1032.2
2017-12-24T00:40:32.299Z,1032.2
2017-12-24T00:41:34.040Z,1032.2
2017-12-24T00:42:35.758Z,1032.2
2017-12-24T00:43:37.483Z,1032.2
2017-12-24T00:44:39.267Z,1032.2
2017-12-24T00:45:40.976Z,1032.2
2017-12-24T00:46:42.684Z,1032.2
2017-12-24T00:47:44.407Z,1032.1
2017-12-24T00:48:46.106Z,1032.1
2017-12-24T00:49:47.839Z,1032.2
2017-12-24T00:50:49.522Z,1032.1
2017-12-24T00:51:51.233Z,1032.1
2017-12-24T00:52:53.005Z,1032.2
2017-12-24T00:53:54.778Z,1032.2
2017-12-24T00:54:56.503Z,1032.1
2017-12-24T00:55:58.212Z,1032.1
2017-12-24T00:56:59.910Z,1032.1
2017-12-24T00:58:01.604Z,1032.1
2017-12-24T00:59:03.300Z,1032.1
2017-12-24T01:00:04.983Z,1032.1
2017-12-24T01:01:06.689Z,1032.1
2017-12-24T01:02:08.572Z,1032.0
2017-12-24T01:03:10.294Z,1032.0
2017-12-24T01:04:12.743Z,1032.0
2017-12-24T01:05:14.463Z,1032.0
2017-12-24T01:06:16.150Z,1032.0
2017-12-24T01:07:17.886Z,1032.1
2017-12-24T01:08:19.595Z,1031.9
2017-12-24T01:09:21.294Z,1032.0
2017-12-24T01:10:23.012Z,1031.9
2017-12-24T01:11:24.777Z,1031.9
2017-12-24T01:12:26.461Z,1031.9
2017-12-24T01:13:28.182Z,1031.9
2017-12-24T01:14:29.891Z,1031.8
2017-12-24T01:15:31.623Z,1031.8
2017-12-24T01:16:33.498Z,1031.8
2017-12-24T01:17:35.273Z,1031.8
2017-12-24T01:18:36.984Z,1031.8
2017-12-24T01:19:38.709Z,1031.8
2017-12-24T01:20:40.434Z,1031.9
2017-12-24T01:21:42.129Z,1031.8
2017-12-24T01:22:43.853Z,1031.8
2017-12-24T01:23:45.552Z,1031.8
2017-12-24T01:24:47.263Z,1031.8
2017-12-24T01:25:48.963Z,1031.8
2017-12-24T01:26:50.668Z,1031.8
2017-12-24T01:27:52.382Z,1031.8
2017-12-24T01:28:54.102Z,1031.8
2017-12-24T01:29:55.785Z,1031.8
2017-12-24T01:30:57.514Z,1031.8
2017-12-24T01:31:59.229Z,1031.8
2017-12-24T01:33:01.187Z,1031.7
2017-12-24T01:34:02.847Z,1031.7
2017-12-24T01:35:04.557Z,1031.8
2017-12-24T01:36:06.365Z,1031.8
2017-12-24T01:37:08.167Z,1031.7
2017-12-24T01:38:10.172Z,1031.8
2017-12-24T01:39:13.205Z,1031.8
2017-12-24T01:40:15.103Z,1031.8
2017-12-24T01:41:17.103Z,1031.8
2017-12-24T01:42:19.514Z,1031.8
2017-12-24T01:43:21.284Z,1031.8
2017-12-24T01:44:23.239Z,1031.8
2017-12-24T01:45:24.932Z,1031.8
2017-12-24T01:46:26.636Z,1031.8
2017-12-24T01:47:28.569Z,1031.8
2017-12-24T01:48:30.280Z,1031.8
2017-12-24T01:49:31.999Z,1031.7
2017-12-24T01:50:33.700Z,1031.7
2017-12-24T01:51:35.422Z,1031.8
2017-12-24T01:52:37.177Z,1031.7
2017-12-24T01:53:38.877Z,1031.7
2017-12-24T01:54:40.587Z,1031.7
2017-12-24T01:55:42.632Z,1031.7
2017-12-24T01:56:44.366Z,1031.7
2017-12-24T01:57:46.598Z,1031.7
2017-12-24T01:58:48.199Z,1031.7
2017-12-24T01:59:49.894Z,1031.7
2017-12-24T02:00:51.606Z,1031.7
2017-12-24T02:01:53.324Z,1031.7
2017-12-24T02:02:55.103Z,1031.7
2017-12-24T02:03:56.832Z,1031.7
2017-12-24T02:04:58.549Z,1031.7
2017-12-24T02:06:00.432Z,1031.6
2017-12-24T02:07:02.158Z,1031.7
2017-12-24T02:08:03.874Z,1031.7
2017-12-24T02:09:05.703Z,1031.6
2017-12-24T02:10:07.414Z,1031.6
2017-12-24T02:11:09.125Z,1031.7
2017-12-24T02:12:10.860Z,1031.6
2017-12-24T02:13:12.567Z,1031.6
2017-12-24T02:14:14.279Z,1031.7
2017-12-24T02:15:16.028Z,1031.7
2017-12-24T02:16:17.794Z,1031.6
2017-12-24T02:17:19.512Z,1031.6
2017-12-24T02:18:21.281Z,1031.6
2017-12-24T02:19:22.991Z,1031.7
2017-12-24T02:20:24.693Z,1031.7
2017-12-24T02:21:26.383Z,1031.6
2017-12-24T02:22:28.082Z,1031.7
2017-12-24T02:23:29.789Z,1031.7
2017-12-24T02:24:31.514Z,1031.6
2017-12-24T02:25:33.248Z,1031.7
2017-12-24T02:26:35.106Z,1031.7
2017-12-24T02:27:36.855Z,1031.6
2017-12-24T02:28:38.570Z,1031.7
2017-12-24T02:29:40.280Z,1031.6
2017-12-24T02:30:42.035Z,1031.7
2017-12-24T02:31:43.744Z,1031.7
2017-12-24T02:32:45.431Z,1031.6
2017-12-24T02:33:47.168Z,1031.7
2017-12-24T02:34:48.877Z,1031.7
2017-12-24T02:35:50.601Z,1031.7
2017-12-24T02:36:52.309Z,1031.7
2017-12-24T02:37:54.017Z,1031.7
2017-12-24T02:38:55.737Z,1031.7
2017-12-24T02:39:57.460Z,1031.7
2017-12-24T02:40:59.171Z,1031.7
2017-12-24T02:42:00.877Z,1031.7
2017-12-24T02:43:02.601Z,1031.7
2017-12-24T02:44:04.342Z,1031.7
2017-12-24T02:45:06.048Z,1031.7
2017-12-24T02:46:07.794Z,1031.7
2017-12-24T02:47:09.514Z,1031.7
2017-12-24T02:48:11.240Z,1031.7
2017-12-24T02:49:12.962Z,1031.7
2017-12-24T02:50:14.679Z,1031.7
2017-12-24T02:51:16.435Z,1031.7
2017-12-24T02:52:18.157Z,1031.6
2017-12-24T02:53:19.884Z,1031.6
2017-12-24T02:54:21.599Z,1031.6
2017-12-24T02:55:23.314Z,1031.6
2017-12-24T02:56:25.038Z,1031.6
2017-12-24T02:57:26.756Z,1031.6
2017-12-24T02:58:28.466Z,1031.6
2017-12-24T02:59:30.155Z,1031.6
2017-12-24T03:00:31.876Z,1031.6
2017-12-24T03:01:33.593Z,1031.6
2017-12-24T03:02:35.363Z,1031.6
2017-12-24T03:03:37.073Z,1031.6
2017-12-24T03:04:38.800Z,1031.6
2017-12-24T03:05:40.524Z,1031.5
2017-12-24T03:06:42.215Z,1031.5
2017-12-24T03:07:43.961Z,1031.6
2017-12-24T03:08:45.770Z,1031.5
2017-12-24T03:09:47.461Z,1031.5
2017-12-24T03:10:49.185Z,1031.5
2017-12-24T03:11:50.905Z,1031.5
2017-12-24T03:12:52.644Z,1031.5
2017-12-24T03:13:54.337Z,1031.6
2017-12-24T03:14:56.094Z,1031.6
2017-12-24T03:15:57.747Z,1031.5
2017-12-24T03:16:59.482Z,1031.5
2017-12-24T03:18:01.216Z,1031.5
2017-12-24T03:19:02.912Z,1031.5
2017-12-24T03:20:04.617Z,1031.5
2017-12-24T03:21:06.398Z,1031.5
2017-12-24T03:22:08.111Z,1031.5
2017-12-24T03:23:09.835Z,1031.5
2017-12-24T03:24:11.568Z,1031.5
2017-12-24T03:25:13.260Z,1031.5
2017-12-24T03:26:15.007Z,1031.4
2017-12-24T03:27:16.733Z,1031.5
2017-12-24T03:28:18.456Z,1031.4
2017-12-24T03:29:20.166Z,1031.4
2017-12-24T03:30:21.888Z,1031.5
2017-12-24T03:31:23.652Z,1031.5
2017-12-24T03:32:25.368Z,1031.4
2017-12-24T03:33:27.075Z,1031.4
2017-12-24T03:34:28.804Z,1031.4
2017-12-24T03:35:30.545Z,1031.4
2017-12-24T03:36:32.292Z,1031.5
2017-12-24T03:37:34.035Z,1031.4
2017-12-24T03:38:35.771Z,1031.5
2017-12-24T03:39:37.477Z,1031.4
2017-12-24T03:40:39.198Z,1031.5
2017-12-24T03:41:40.929Z,1031.5
2017-12-24T03:42:42.652Z,1031.5
2017-12-24T03:43:44.372Z,1031.5
2017-12-24T03:44:46.057Z,1031.5
2017-12-24T03:45:47.762Z,1031.5
2017-12-24T03:46:49.480Z,1031.5
2017-12-24T03:47:51.197Z,1031.5
2017-12-24T03:48:52.903Z,1031.5
2017-12-24T03:49:54.673Z,1031.5
2017-12-24T03:50:56.389Z,1031.6
2017-12-24T03:51:58.104Z,1031.6
2017-12-24T03:52:59.804Z,1031.6
2017-12-24T03:54:01.512Z,1031.6
2017-12-24T03:55:03.248Z,1031.6
2017-12-24T03:56:04.962Z,1031.6
2017-12-24T03:57:06.666Z,1031.6
2017-12-24T03:58:08.392Z,1031.6
2017-12-24T03:59:10.132Z,1031.6
2017-12-24T04:00:11.872Z,1031.6
2017-12-24T04:01:13.560Z,1031.6
2017-12-24T04:02:15.328Z,1031.6
2017-12-24T04:03:17.043Z,1031.7
2017-12-24T04:04:18.776Z,1031.6
2017-12-24T04:05:20.489Z,1031.7
2017-12-24T04:06:22.218Z,1031.6
2017-12-24T04:07:23.920Z,1031.7
2017-12-24T04:08:25.626Z,1031.7
2017-12-24T04:09:27.328Z,1031.7
2017-12-24T04:10:29.062Z,1031.7
2017-12-24T04:11:30.776Z,1031.7
2017-12-24T04:12:32.482Z,1031.7
2017-12-24T04:13:34.193Z,1031.6
2017-12-24T04:14:35.902Z,1031.6
2017-12-24T04:15:37.627Z,1031.6
2017-12-24T04:16:39.329Z,1031.6
2017-12-24T04:17:41.041Z,1031.6
2017-12-24T04:18:42.748Z,1031.6
2017-12-24T04:19:44.544Z,1031.6
2017-12-24T04:20:46.259Z,1031.6
2017-12-24T04:21:48.072Z,1031.6
2017-12-24T04:22:49.803Z,1031.6
2017-12-24T04:23:51.525Z,1031.6
2017-12-24T04:24:53.226Z,1031.6
2017-12-24T04:25:54.964Z,1031.6
2017-12-24T04:26:56.700Z,1031.6
2017-12-24T04:27:58.386Z,1031.6
2017-12-24T04:29:00.098Z,1031.6
2017-12-24T04:30:01.826Z,1031.6
2017-12-24T04:31:03.730Z,1031.6
2017-12-24T04:32:05.444Z,1031.6
2017-12-24T04:33:07.142Z,1031.6
2017-12-24T04:34:08.887Z,1031.6
2017-12-24T04:35:10.634Z,1031.6
2017-12-24T04:36:12.366Z,1031.5
2017-12-24T04:37:14.141Z,1031.5
2017-12-24T04:38:15.876Z,1031.6
2017-12-24T04:39:17.660Z,1031.6
2017-12-24T04:40:19.402Z,1031.6
2017-12-24T04:41:21.098Z,1031.5
2017-12-24T04:42:22.817Z,1031.6
2017-12-24T04:43:24.536Z,1031.6
2017-12-24T04:44:26.402Z,1031.6
2017-12-24T04:45:28.103Z,1031.5
2017-12-24T04:46:29.844Z,1031.6
2017-12-24T04:47:31.622Z,1031.5
2017-12-24T04:48:33.312Z,1031.6
2017-12-24T04:49:35.010Z,1031.5
2017-12-24T04:50:36.802Z,1031.5
2017-12-24T04:51:38.511Z,1031.5
2017-12-24T04:52:40.428Z,1031.5
2017-12-24T04:53:42.181Z,1031.5
2017-12-24T04:54:43.891Z,1031.5
2017-12-24T04:55:45.597Z,1031.4
2017-12-24T04:56:47.331Z,1031.4
2017-12-24T04:57:49.066Z,1031.4
2017-12-24T04:58:50.798Z,1031.4
2017-12-24T04:59:52.526Z,1031.4
2017-12-24T05:00:54.240Z,1031.5
2017-12-24T05:01:55.972Z,1031.5
2017-12-24T05:02:57.688Z,1031.5
2017-12-24T05:03:59.402Z,1031.5
2017-12-24T05:05:01.086Z,1031.5
2017-12-24T05:06:02.821Z,1031.5
2017-12-24T05:07:04.541Z,1031.5
2017-12-24T05:08:06.243Z,1031.5
2017-12-24T05:09:07.973Z,1031.5
2017-12-24T05:10:09.763Z,1031.6
2017-12-24T05:11:11.513Z,1031.5
2017-12-24T05:12:13.243Z,1031.5
2017-12-24T05:13:14.987Z,1031.5
2017-12-24T05:14:16.690Z,1031.5
2017-12-24T05:15:18.435Z,1031.6
2017-12-24T05:16:20.174Z,1031.5
2017-12-24T05:17:21.906Z,1031.5
2017-12-24T05:18:23.623Z,1031.6
2017-12-24T05:19:25.371Z,1031.6
2017-12-24T05:20:27.096Z,1031.5
2017-12-24T05:21:28.815Z,1031.6
2017-12-24T05:22:30.497Z,1031.5
2017-12-24T05:23:32.211Z,1031.6
2017-12-24T05:24:34.264Z,1031.6
2017-12-24T05:25:36.549Z,1031.5
2017-12-24T05:26:38.243Z,1031.6
2017-12-24T05:27:39.972Z,1031.5
2017-12-24T05:28:41.678Z,1031.6
2017-12-24T05:29:43.397Z,1031.5
2017-12-24T05:30:45.089Z,1031.5
2017-12-24T05:31:46.785Z,1031.5
2017-12-24T05:32:48.510Z,1031.5
2017-12-24T05:33:50.262Z,1031.5
2017-12-24T05:34:51.970Z,1031.5
2017-12-24T05:35:53.785Z,1031.5
2017-12-24T05:36:55.490Z,1031.6
2017-12-24T05:37:57.202Z,1031.5
2017-12-24T05:38:58.969Z,1031.5
2017-12-24T05:40:00.665Z,1031.6
2017-12-24T05:41:02.381Z,1031.6
2017-12-24T05:42:04.108Z,1031.5
2017-12-24T05:43:05.903Z,1031.6
2017-12-24T05:44:07.653Z,1031.5
2017-12-24T05:45:09.373Z,1031.5
2017-12-24T05:46:11.080Z,1031.5
2017-12-24T05:47:13.295Z,1031.6
2017-12-24T05:48:15.013Z,1031.6
2017-12-24T05:49:16.714Z,1031.6
2017-12-24T05:50:18.411Z,1031.6
2017-12-24T05:51:20.112Z,1031.6
2017-12-24T05:52:21.856Z,1031.7
2017-12-24T05:53:23.568Z,1031.7
2017-12-24T05:54:25.272Z,1031.7
2017-12-24T05:55:26.962Z,1031.7
2017-12-24T05:56:28.696Z,1031.6
2017-12-24T05:57:30.398Z,1031.7
2017-12-24T05:58:32.460Z,1031.6
2017-12-24T05:59:34.164Z,1031.6
2017-12-24T06:00:35.889Z,1031.6
2017-12-24T06:01:37.588Z,1031.7
2017-12-24T06:02:39.331Z,1031.7
2017-12-24T06:03:41.052Z,1031.7
2017-12-24T06:04:42.754Z,1031.7
2017-12-24T06:05:44.480Z,1031.7
2017-12-24T06:06:46.196Z,1031.7
2017-12-24T06:07:47.902Z,1031.7
2017-12-24T06:08:49.597Z,1031.7
2017-12-24T06:09:51.325Z,1031.7
2017-12-24T06:10:53.109Z,1031.7
2017-12-24T06:11:54.862Z,1031.7
2017-12-24T06:12:56.574Z,1031.7
2017-12-24T06:13:58.270Z,1031.7
2017-12-24T06:14:59.990Z,1031.8
2017-12-24T06:16:01.709Z,1031.7
2017-12-24T06:17:03.416Z,1031.7
2017-12-24T06:18:05.320Z,1031.7
2017-12-24T06:19:07.009Z,1031.7
2017-12-24T06:20:08.726Z,1031.8
2017-12-24T06:21:10.444Z,1031.8
2017-12-24T06:22:12.150Z,1031.8
2017-12-24T06:23:13.861Z,1031.8
2017-12-24T06:24:15.573Z,1031.8
2017-12-24T06:25:18.709Z,1031.8
2017-12-24T06:26:20.407Z,1031.8
2017-12-24T06:27:22.110Z,1031.8
2017-12-24T06:28:23.822Z,1031.8
2017-12-24T06:29:25.531Z,1031.8
2017-12-24T06:30:27.241Z,1031.8
2017-12-24T06:31:28.958Z,1031.8
2017-12-24T06:32:30.658Z,1031.8
2017-12-24T06:33:32.373Z,1031.8
2017-12-24T06:34:34.071Z,1031.8
2017-12-24T06:35:35.786Z,1031.8
2017-12-24T06:36:37.505Z,1031.8
2017-12-24T06:37:39.212Z,1031.8
2017-12-24T06:38:40.918Z,1031.9
2017-12-24T06:39:42.641Z,1031.9
2017-12-24T06:40:44.353Z,1031.8
2017-12-24T06:41:46.057Z,1031.9
2017-12-24T06:42:47.784Z,1031.9
2017-12-24T06:43:49.504Z,1031.8
2017-12-24T06:44:51.211Z,1031.8
2017-12-24T06:45:53.004Z,1031.9
2017-12-24T06:46:54.701Z,1031.8
2017-12-24T06:47:56.412Z,1031.9
2017-12-24T06:48:58.133Z,1031.9
2017-12-24T06:49:59.821Z,1031.8
2017-12-24T06:51:01.528Z,1031.8
2017-12-24T06:52:03.249Z,1031.8
2017-12-24T06:53:04.957Z,1031.8
2017-12-24T06:54:06.679Z,1031.8
2017-12-24T06:55:08.383Z,1031.8
2017-12-24T06:56:10.132Z,1031.8
2017-12-24T06:57:11.873Z,1031.8
2017-12-24T06:58:13.599Z,1031.8
2017-12-24T06:59:15.298Z,1031.9
2017-12-24T07:00:17.125Z,1031.8
2017-12-24T07:01:18.826Z,1031.8
2017-12-24T07:02:20.555Z,1031.8
2017-12-24T07:03:22.281Z,1031.8
2017-12-24T07:04:23.987Z,1031.8
2017-12-24T07:05:25.710Z,1031.8
2017-12-24T07:06:27.429Z,1031.8
2017-12-24T07:07:29.143Z,1031.8
2017-12-24T07:08:30.876Z,1031.8
2017-12-24T07:09:32.652Z,1031.8
2017-12-24T07:10:34.389Z,1031.8
2017-12-24T07:11:36.116Z,1031.8
2017-12-24T07:12:37.809Z,1031.8
2017-12-24T07:13:39.523Z,1031.8
2017-12-24T07:14:41.233Z,1031.8
2017-12-24T07:15:42.958Z,1031.9
2017-12-24T07:16:44.668Z,1031.8
2017-12-24T07:17:46.388Z,1031.8
2017-12-24T07:18:48.120Z,1031.9
2017-12-24T07:19:49.848Z,1031.9
2017-12-24T07:20:51.588Z,1031.8
2017-12-24T07:21:53.895Z,1031.9
2017-12-24T07:22:55.601Z,1031.9
2017-12-24T07:23:57.309Z,1031.9
2017-12-24T07:24:59.013Z,1031.9
2017-12-24T07:26:00.959Z,1031.9
2017-12-24T07:27:02.661Z,1031.9
2017-12-24T07:28:04.364Z,1031.9
2017-12-24T07:29:06.068Z,1032.0
2017-12-24T07:30:07.786Z,1032.0
2017-12-24T07:31:09.528Z,1032.1
2017-12-24T07:32:11.232Z,1032.0
2017-12-24T07:33:12.941Z,1032.1
2017-12-24T07:34:14.709Z,1032.0
2017-12-24T07:35:16.367Z,1032.1
2017-12-24T07:36:18.092Z,1032.1
2017-12-24T07:37:19.844Z,1032.1
2017-12-24T07:38:21.590Z,1032.1
2017-12-24T07:39:23.340Z,1032.1
2017-12-24T07:40:25.115Z,1032.1
2017-12-24T07:41:26.806Z,1032.1
2017-12-24T07:42:28.521Z,1032.1
2017-12-24T07:43:30.286Z,1032.2
2017-12-24T07:44:31.985Z,1032.2
2017-12-24T07:45:33.718Z,1032.1
2017-12-24T07:46:35.480Z,1032.2
2017-12-24T07:47:37.262Z,1032.2
2017-12-24T07:48:39.091Z,1032.2
2017-12-24T07:49:40.857Z,1032.2
2017-12-24T07:50:42.592Z,1032.2
2017-12-24T07:51:44.352Z,1032.3
2017-12-24T07:52:46.061Z,1032.3
2017-12-24T07:53:47.760Z,1032.3
2017-12-24T07:54:49.498Z,1032.3
2017-12-24T07:55:51.257Z,1032.3
2017-12-24T07:56:52.904Z,1032.3
2017-12-24T07:57:54.630Z,1032.3
2017-12-24T07:58:56.392Z,1032.3
2017-12-24T07:59:58.130Z,1032.3
2017-12-24T08:00:59.836Z,1032.3
2017-12-24T08:02:01.550Z,1032.3
2017-12-24T08:03:03.267Z,1032.3
2017-12-24T08:04:04.952Z,1032.3
2017-12-24T08:05:06.669Z,1032.3
2017-12-24T08:06:08.390Z,1032.3
2017-12-24T08:07:10.113Z,1032.3
2017-12-24T08:08:11.836Z,1032.3
2017-12-24T08:09:13.549Z,1032.3
2017-12-24T08:10:15.271Z,1032.3
2017-12-24T08:11:17.033Z,1032.3
2017-12-24T08:12:18.754Z,1032.3
2017-12-24T08:13:20.483Z,1032.3
2017-12-24T08:14:22.176Z,1032.3
2017-12-24T08:15:23.919Z,1032.3
2017-12-24T08:16:25.650Z,1032.3
2017-12-24T08:17:27.357Z,1032.3
2017-12-24T08:18:29.075Z,1032.3
2017-12-24T08:19:30.855Z,1032.3
2017-12-24T08:20:32.543Z,1032.3
2017-12-24T08:21:34.305Z,1032.3
2017-12-24T08:22:36.055Z,1032.3
2017-12-24T08:23:37.817Z,1032.3
2017-12-24T08:24:39.561Z,1032.3
2017-12-24T08:25:41.326Z,1032.3
2017-12-24T08:26:43.044Z,1032.3
2017-12-24T08:27:44.814Z,1032.3
2017-12-24T08:28:46.501Z,1032.3
2017-12-24T08:29:48.232Z,1032.4
2017-12-24T08:30:49.961Z,1032.4
2017-12-24T08:31:51.691Z,1032.4
2017-12-24T08:32:53.452Z,1032.4
2017-12-24T08:33:55.162Z,1032.4
2017-12-24T08:34:56.912Z,1032.4
2017-12-24T08:35:58.625Z,1032.4
2017-12-24T08:37:00.357Z,1032.4
2017-12-24T08:38:02.076Z,1032.3
2017-12-24T08:39:03.856Z,1032.4
2017-12-24T08:40:05.566Z,1032.4
2017-12-24T08:41:07.289Z,1032.4
2017-12-24T08:42:08.993Z,1032.3
2017-12-24T08:43:10.696Z,1032.3
2017-12-24T08:44:12.417Z,1032.3
2017-12-24T08:45:14.123Z,1032.2
2017-12-24T08:46:15.846Z,1032.3
2017-12-24T08:47:17.626Z,1032.3
2017-12-24T08:48:19.368Z,1032.3
2017-12-24T08:49:21.071Z,1032.3
2017-12-24T08:50:22.788Z,1032.3
2017-12-24T08:51:24.479Z,1032.3
2017-12-24T08:52:26.163Z,1032.3
2017-12-24T08:53:27.871Z,1032.2
2017-12-24T08:54:29.564Z,1032.3
2017-12-24T08:55:31.267Z,1032.2
2017-12-24T08:56:32.974Z,1032.3
2017-12-24T08:57:34.681Z,1032.2
2017-12-24T08:58:36.397Z,1032.2
2017-12-24T08:59:38.111Z,1032.2
2017-12-24T09:00:39.864Z,1032.2
2017-12-24T09:01:41.583Z,1032.2
2017-12-24T09:02:43.319Z,1032.2
2017-12-24T09:03:45.067Z,1032.2
2017-12-24T09:04:46.790Z,1032.2
2017-12-24T09:05:48.502Z,1032.2
2017-12-24T09:06:50.253Z,1032.2
2017-12-24T09:07:51.964Z,1032.3
2017-12-24T09:08:53.715Z,1032.3
2017-12-24T09:09:55.496Z,1032.3
2017-12-24T09:10:57.242Z,1032.3
2017-12-24T09:11:58.966Z,1032.3
2017-12-24T09:13:00.729Z,1032.4
2017-12-24T09:14:02.437Z,1032.4
2017-12-24T09:15:04.183Z,1032.3
2017-12-24T09:16:06.265Z,1032.4
2017-12-24T09:17:07.972Z,1032.4
2017-12-24T09:18:09.739Z,1032.4
2017-12-24T09:19:11.478Z,1032.4
2017-12-24T09:20:13.203Z,1032.4
2017-12-24T09:21:14.945Z,1032.4
2017-12-24T09:22:16.666Z,1032.4
2017-12-24T09:23:18.468Z,1032.4
2017-12-24T09:24:20.263Z,1032.4
2017-12-24T09:25:21.913Z,1032.4
2017-12-24T09:26:23.659Z,1032.4
2017-12-24T09:27:25.422Z,1032.4
2017-12-24T09:28:27.152Z,1032.4
2017-12-24T09:29:28.860Z,1032.5
2017-12-24T09:30:30.580Z,1032.5
2017-12-24T09:31:32.441Z,1032.5
2017-12-24T09:32:34.240Z,1032.5
2017-12-24T09:33:36.163Z,1032.5
2017-12-24T09:34:37.905Z,1032.5
2017-12-24T09:35:39.693Z,1032.4
2017-12-24T09:36:41.719Z,1032.5
2017-12-24T09:37:43.518Z,1032.5
2017-12-24T09:38:45.294Z,1032.6
2017-12-24T09:39:47.143Z,1032.5
2017-12-24T09:40:48.852Z,1032.5
2017-12-24T09:41:50.591Z,1032.5
2017-12-24T09:42:54.618Z,1032.4
2017-12-24T09:43:56.746Z,1032.4
2017-12-24T09:45:01.435Z,1032.4
2017-12-24T09:46:05.016Z,1032.3
2017-12-24T09:47:06.668Z,1032.4
2017-12-24T09:48:08.497Z,1032.4
2017-12-24T09:49:10.208Z,1032.4
2017-12-24T09:50:11.947Z,1032.4
2017-12-24T09:51:13.689Z,1032.4
2017-12-24T09:52:15.418Z,1032.4
2017-12-24T09:53:17.236Z,1032.4
2017-12-24T09:54:19.092Z,1032.4
2017-12-24T09:55:20.814Z,1032.3
2017-12-24T09:56:22.570Z,1032.4
2017-12-24T09:57:24.288Z,1032.4
2017-12-24T09:58:26.049Z,1032.3
2017-12-24T09:59:27.770Z,1032.3
2017-12-24T10:00:29.554Z,1032.3
2017-12-24T10:01:31.460Z,1032.2
2017-12-24T10:02:33.196Z,1032.2
2017-12-24T10:03:34.909Z,1032.3
2017-12-24T10:04:36.709Z,1032.3
2017-12-24T10:05:38.523Z,1032.3
2017-12-24T10:06:40.252Z,1032.3
2017-12-24T10:07:42.100Z,1032.3
2017-12-24T10:08:43.823Z,1032.3
2017-12-24T10:09:45.565Z,1032.3
2017-12-24T10:10:47.294Z,1032.4
2017-12-24T10:11:49.197Z,1032.4
2017-12-24T10:12:50.986Z,1032.4
2017-12-24T10:13:53.964Z,1032.4
2017-12-24T10:15:00.951Z,1032.4
2017-12-24T10:16:02.539Z,1032.3
2017-12-24T10:17:04.373Z,1032.4
2017-12-24T10:18:06.165Z,1032.4
2017-12-24T10:19:07.868Z,1032.4
2017-12-24T10:20:09.593Z,1032.4
2017-12-24T10:21:11.314Z,1032.4
2017-12-24T10:22:13.112Z,1032.4
2017-12-24T10:23:15.002Z,1032.4
2017-12-24T10:24:16.710Z,1032.4
2017-12-24T10:25:18.440Z,1032.4
2017-12-24T10:26:20.277Z,1032.4
2017-12-24T10:27:22.004Z,1032.4
2017-12-24T10:28:23.747Z,1032.4
2017-12-24T10:29:25.476Z,1032.4
2017-12-24T10:30:27.412Z,1032.4
2017-12-24T10:31:29.529Z,1032.5
2017-12-24T10:32:31.275Z,1032.4
2017-12-24T10:33:33.012Z,1032.4
2017-12-24T10:34:34.729Z,1032.4
2017-12-24T10:35:36.469Z,1032.4
2017-12-24T10:36:38.225Z,1032.4
2017-12-24T10:37:39.958Z,1032.5
2017-12-24T10:38:41.685Z,1032.5
2017-12-24T10:39:43.503Z,1032.5
2017-12-24T10:40:45.284Z,1032.4
2017-12-24T10:41:47.018Z,1032.4
2017-12-24T10:42:48.818Z,1032.5
2017-12-24T10:43:50.701Z,1032.5
2017-12-24T10:44:52.461Z,1032.5
2017-12-24T10:45:54.261Z,1032.4
2017-12-24T10:46:55.981Z,1032.4
2017-12-24T10:47:57.785Z,1032.4
2017-12-24T10:48:59.709Z,1032.4
2017-12-24T10:50:01.450Z,1032.4
2017-12-24T10:51:03.292Z,1032.4
2017-12-24T10:52:05.031Z,1032.3
2017-12-24T10:53:06.739Z,1032.3
2017-12-24T10:54:08.466Z,1032.3
2017-12-24T10:55:10.208Z,1032.3
2017-12-24T10:56:11.928Z,1032.2
2017-12-24T10:57:13.642Z,1032.2
2017-12-24T10:58:15.688Z,1032.2
2017-12-24T10:59:17.413Z,1032.2
2017-12-24T11:00:19.327Z,1032.2
2017-12-24T11:01:21.157Z,1032.2
2017-12-24T11:02:22.923Z,1032.2
2017-12-24T11:03:24.681Z,1032.1
2017-12-24T11:04:26.389Z,1032.1
2017-12-24T11:05:28.106Z,1032.1
2017-12-24T11:06:29.855Z,1032.1
2017-12-24T11:07:31.770Z,1032.1
2017-12-24T11:08:33.602Z,1032.1
2017-12-24T11:09:35.346Z,1032.1
2017-12-24T11:10:37.188Z,1032.1
2017-12-24T11:11:38.988Z,1032.1
2017-12-24T11:12:41.109Z,1032.0
2017-12-24T11:13:42.894Z,1032.1
2017-12-24T11:14:44.889Z,1032.1
2017-12-24T11:15:46.596Z,1032.0
2017-12-24T11:16:48.352Z,1032.0
2017-12-24T11:17:50.074Z,1032.0
2017-12-24T11:18:51.844Z,1032.0
2017-12-24T11:19:53.581Z,1031.9
2017-12-24T11:20:55.458Z,1031.9
2017-12-24T11:21:57.216Z,1032.0
2017-12-24T11:22:58.937Z,1031.9
2017-12-24T11:24:00.730Z,1031.9
2017-12-24T11:25:02.448Z,1031.9
2017-12-24T11:26:04.169Z,1031.9
2017-12-24T11:27:05.911Z,1032.0
2017-12-24T11:28:07.678Z,1031.9
2017-12-24T11:29:09.405Z,1031.9
2017-12-24T11:30:11.238Z,1031.9
2017-12-24T11:31:12.948Z,1031.9
2017-12-24T11:32:14.677Z,1031.9
2017-12-24T11:33:16.399Z,1031.9
2017-12-24T11:34:18.170Z,1031.9
2017-12-24T11:35:19.978Z,1031.9
2017-12-24T11:36:21.720Z,1031.8
2017-12-24T11:37:23.469Z,1031.7
2017-12-24T11:38:25.252Z,1031.8
2017-12-24T11:39:27.066Z,1031.8
2017-12-24T11:40:28.814Z,1031.8
2017-12-24T11:41:30.581Z,1031.8
2017-12-24T11:42:32.364Z,1031.7
2017-12-24T11:43:34.124Z,1031.7
2017-12-24T11:44:35.922Z,1031.6
2017-12-24T11:45:37.941Z,1031.6
2017-12-24T11:46:39.898Z,1031.6
2017-12-24T11:47:41.695Z,1031.6
2017-12-24T11:48:43.450Z,1031.7
2017-12-24T11:49:45.199Z,1031.6
2017-12-24T11:50:46.845Z,1031.7
2017-12-24T11:51:48.574Z,1031.6
2017-12-24T11:52:50.625Z,1031.6
2017-12-24T11:53:52.360Z,1031.6
2017-12-24T11:54:54.142Z,1031.6
2017-12-24T11:55:58.919Z,1031.5
2017-12-24T11:57:00.466Z,1031.4
2017-12-24T11:58:02.476Z,1031.3
2017-12-24T11:59:04.202Z,1031.3
2017-12-24T12:00:06.000Z,1031.3
2017-12-24T12:01:07.728Z,1031.3
2017-12-24T12:02:10.967Z,1031.3
2017-12-24T12:03:12.787Z,1031.2
2017-12-24T12:04:14.555Z,1031.2
2017-12-24T12:05:16.383Z,1031.3
2017-12-24T12:06:18.116Z,1031.2
2017-12-24T12:07:19.916Z,1031.1
2017-12-24T12:08:21.931Z,1031.1
2017-12-24T12:09:23.678Z,1031.2
2017-12-24T12:10:25.437Z,1031.1
2017-12-24T12:11:27.190Z,1031.1
2017-12-24T12:12:28.917Z,1031.0
2017-12-24T12:13:30.761Z,1031.0
2017-12-24T12:14:35.237Z,1031.0
2017-12-24T12:15:36.983Z,1031.0
2017-12-24T12:16:38.772Z,1030.9
2017-12-24T12:17:40.537Z,1030.9
2017-12-24T12:18:42.306Z,1030.9
2017-12-24T12:19:44.091Z,1031.0
2017-12-24T12:20:45.815Z,1030.9
2017-12-24T12:21:47.550Z,1030.9
2017-12-24T12:22:49.373Z,1030.9
2017-12-24T12:23:51.108Z,1030.8
2017-12-24T12:24:52.849Z,1030.8
2017-12-24T12:25:54.591Z,1030.8
2017-12-24T12:26:56.426Z,1030.8
2017-12-24T12:27:58.165Z,1030.8
2017-12-24T12:28:59.948Z,1030.7
2017-12-24T12:30:01.695Z,1030.8
2017-12-24T12:31:03.476Z,1030.7
2017-12-24T12:32:05.265Z,1030.7
2017-12-24T12:33:06.986Z,1030.7
2017-12-24T12:34:08.782Z,1030.6
2017-12-24T12:35:10.532Z,1030.6
2017-12-24T12:36:12.266Z,1030.6
2017-12-24T12:37:14.001Z,1030.6
2017-12-24T12:38:15.992Z,1030.6
2017-12-24T12:39:17.714Z,1030.5
2017-12-24T12:40:19.461Z,1030.5
2017-12-24T12:41:21.237Z,1030.5
2017-12-24T12:42:23.124Z,1030.5
2017-12-24T12:43:24.868Z,1030.5
2017-12-24T12:44:26.654Z,1030.5
2017-12-24T12:45:28.407Z,1030.5
2017-12-24T12:46:30.175Z,1030.5
2017-12-24T12:47:31.910Z,1030.4
2017-12-24T12:48:33.723Z,1030.5
2017-12-24T12:49:35.468Z,1030.5
2017-12-24T12:50:37.485Z,1030.4